Airfield :
LOGIN :

Register | Disclaimer

   EN    FR    IT 

 










Legend :    VFR   Marginal VFR   IFR   Intensive IFR   Very Intensive IFR
Visi :
Ceiling :
>= 8 km
>= 3000ft
5 to 8 km
1000 to 3000 ft
1500m to 5 km
500 to 1000 ft
800 to 1500m
200 to 500 ft
< 800m
< 200 ft
Symbols :   Thunderstorms  Fog  Heavy snow  Heavy precipitations  Wind > 20 kt
SIGMETs :     Misc.  Thunderstorms  Icing  Turbulence  Mountain Waves  Volcanic Ashes






- Airport Elevation : 220 ft
- IATA code : CWL


EGFF - Cardiff Rhoose

CURRENT METAR :
  • 242050Z AUTO 36010KT 9999 BKN026 01/M02 Q0999

EXPIRED METARs :
  • 242020Z AUTO 36009KT 9999 SCT022 SCT033 01/M01 Q0998
  • 241950Z AUTO 35007KT 9999 SCT033 BKN047 01/M00 Q0998
  • 241920Z 36010KT 8000 -SN FEW009 BKN016 01/00 Q0997
  • 241850Z AUTO 31011KT 7000 -RA FEW007 SCT028 BKN038 02/02 Q0996
  • 241820Z AUTO 31011KT 9999 BKN006 02/02 Q0996
  • 241750Z AUTO 30011KT 9999 BKN005 OVC011 02/02 Q0996

TAF TAF EGFF
Valid from the 24 at 18:00 until the 25 at 18:00 UTC


241659Z 2418/2518 31006KT 9999 SCT020
PROB30
TEMPO 2418/2422 4000 -SHRASN BKN009
PROB30
TEMPO 2422/2501 BKN012
ATIS : +44 1446 729 319



MET'MAP, your aeronautical weather chart ! - Copyright ORBIFLY December 2007 - Disclaimer

ORBIFLY MET'MAP TEAM :

Programming & Development : Alexandra Zaïnal
Concept & original design : Baudouin d'Aumeries
Assistance for programming : Marc-Olivier Méhu
Technical & hardware support : Manuel Goepfert

Contact : metmap@orbifly.com




SOURCES & CREDITS :

   NOAA